Terminal Aerodrome Forecast
Issued by NWS

Home | Current Version | Previous Version | Text Only | Print | Product List | Glossary On
Versions: 1 2 3 4 5 6 7 8 9 10 11 12
000
FTUS43 KEAX 191100
TAFMKC
TAF
KMKC 191120Z 1912/2012 14004KT P6SM SCT150
     FM191600 18010KT P6SM SCT050 SCT150
     FM200100 16004KT P6SM FEW150=

USA.gov is the U.S. government's official web portal to all federal, state and local government web resources and services.